sensor_id;sensor_type;location;lat;lon;timestamp;P1;durP1;ratioP1;P2;durP2;ratioP2
61739;SDS011;47645;45.288;12.038;2023-12-14T00:00:38;13.8;;;10.1;;
61739;SDS011;47645;45.288;12.038;2023-12-14T00:10:38;14.9;;;10.4;;
61739;SDS011;47645;45.288;12.038;2023-12-14T00:20:39;15.3;;;10.6;;
61739;SDS011;47645;45.288;12.038;2023-12-14T00:30:39;16.1;;;10.9;;
61739;SDS011;47645;45.288;12.038;2023-12-14T00:40:40;18.4;;;12.4;;
61739;SDS011;47645;45.288;12.038;2023-12-14T00:50:40;14.1;;;10.9;;
61739;SDS011;47645;45.288;12.038;2023-12-14T01:00:41;15.6;;;11.7;;
61739;SDS011;47645;45.288;12.038;2023-12-14T01:10:42;17.8;;;11.5;;
61739;SDS011;47645;45.288;12.038;2023-12-14T01:20:42;17.5;;;11.6;;
61739;SDS011;47645;45.288;12.038;2023-12-14T01:30:42;14.6;;;10.3;;
61739;SDS011;47645;45.288;12.038;2023-12-14T01:40:43;17.7;;;11.7;;
61739;SDS011;47645;45.288;12.038;2023-12-14T01:50:43;14.4;;;10.3;;
61739;SDS011;47645;45.288;12.038;2023-12-14T02:00:46;15.0;;;10.9;;
61739;SDS011;47645;45.288;12.038;2023-12-14T02:10:44;14.1;;;9.9;;
61739;SDS011;47645;45.288;12.038;2023-12-14T02:20:45;11.7;;;8.4;;
61739;SDS011;47645;45.288;12.038;2023-12-14T02:30:45;11.1;;;8.8;;
61739;SDS011;47645;45.288;12.038;2023-12-14T02:40:46;9.4;;;6.7;;
61739;SDS011;47645;45.288;12.038;2023-12-14T02:50:46;10.6;;;8.0;;
61739;SDS011;47645;45.288;12.038;2023-12-14T03:00:47;8.4;;;6.3;;
61739;SDS011;47645;45.288;12.038;2023-12-14T03:10:47;12.9;;;8.4;;
61739;SDS011;47645;45.288;12.038;2023-12-14T03:20:48;11.0;;;8.3;;
61739;SDS011;47645;45.288;12.038;2023-12-14T03:30:48;12.1;;;8.6;;
61739;SDS011;47645;45.288;12.038;2023-12-14T03:40:49;12.6;;;8.6;;
61739;SDS011;47645;45.288;12.038;2023-12-14T03:50:49;10.3;;;7.5;;
61739;SDS011;47645;45.288;12.038;2023-12-14T04:00:50;10.2;;;7.4;;
61739;SDS011;47645;45.288;12.038;2023-12-14T04:10:50;11.2;;;8.0;;
61739;SDS011;47645;45.288;12.038;2023-12-14T04:20:51;10.4;;;6.7;;
61739;SDS011;47645;45.288;12.038;2023-12-14T04:30:51;8.8;;;6.5;;
61739;SDS011;47645;45.288;12.038;2023-12-14T04:40:52;11.0;;;8.2;;
61739;SDS011;47645;45.288;12.038;2023-12-14T04:50:52;15.1;;;10.2;;
61739;SDS011;47645;45.288;12.038;2023-12-14T05:00:53;12.7;;;9.0;;
61739;SDS011;47645;45.288;12.038;2023-12-14T05:10:53;15.4;;;9.4;;
61739;SDS011;47645;45.288;12.038;2023-12-14T05:20:53;14.9;;;10.0;;
61739;SDS011;47645;45.288;12.038;2023-12-14T05:30:54;13.0;;;9.1;;
61739;SDS011;47645;45.288;12.038;2023-12-14T05:40:54;14.7;;;8.9;;
61739;SDS011;47645;45.288;12.038;2023-12-14T05:50:56;16.6;;;10.2;;
61739;SDS011;47645;45.288;12.038;2023-12-14T06:00:57;16.1;;;10.4;;
61739;SDS011;47645;45.288;12.038;2023-12-14T06:10:56;15.2;;;9.4;;
61739;SDS011;47645;45.288;12.038;2023-12-14T06:20:56;15.3;;;9.6;;
61739;SDS011;47645;45.288;12.038;2023-12-14T06:30:57;17.6;;;9.3;;
61739;SDS011;47645;45.288;12.038;2023-12-14T06:40:57;16.0;;;9.5;;
61739;SDS011;47645;45.288;12.038;2023-12-14T06:50:57;17.5;;;10.0;;
61739;SDS011;47645;45.288;12.038;2023-12-14T07:00:58;17.5;;;10.6;;
61739;SDS011;47645;45.288;12.038;2023-12-14T07:10:58;21.7;;;11.9;;
61739;SDS011;47645;45.288;12.038;2023-12-14T07:20:59;24.5;;;11.8;;
61739;SDS011;47645;45.288;12.038;2023-12-14T07:30:59;17.8;;;10.2;;
61739;SDS011;47645;45.288;12.038;2023-12-14T07:41:00;20.6;;;11.5;;
61739;SDS011;47645;45.288;12.038;2023-12-14T07:51:00;24.2;;;12.0;;
61739;SDS011;47645;45.288;12.038;2023-12-14T08:01:01;20.1;;;11.2;;
61739;SDS011;47645;45.288;12.038;2023-12-14T08:11:03;27.1;;;12.2;;
61739;SDS011;47645;45.288;12.038;2023-12-14T08:21:03;25.0;;;12.3;;
61739;SDS011;47645;45.288;12.038;2023-12-14T08:31:03;16.7;;;10.6;;
61739;SDS011;47645;45.288;12.038;2023-12-14T08:41:03;21.8;;;11.4;;
61739;SDS011;47645;45.288;12.038;2023-12-14T08:51:04;15.7;;;9.9;;
61739;SDS011;47645;45.288;12.038;2023-12-14T09:01:04;14.3;;;9.2;;
61739;SDS011;47645;45.288;12.038;2023-12-14T09:11:05;15.7;;;10.8;;
61739;SDS011;47645;45.288;12.038;2023-12-14T09:21:05;13.9;;;9.7;;
61739;SDS011;47645;45.288;12.038;2023-12-14T09:31:06;12.8;;;8.6;;
61739;SDS011;47645;45.288;12.038;2023-12-14T09:41:07;13.4;;;9.3;;
61739;SDS011;47645;45.288;12.038;2023-12-14T09:51:07;13.3;;;8.9;;
61739;SDS011;47645;45.288;12.038;2023-12-14T10:01:20;13.5;;;8.5;;
61739;SDS011;47645;45.288;12.038;2023-12-14T10:11:14;13.0;;;9.0;;
61739;SDS011;47645;45.288;12.038;2023-12-14T10:21:08;14.1;;;9.3;;
61739;SDS011;47645;45.288;12.038;2023-12-14T10:31:09;13.2;;;9.7;;
61739;SDS011;47645;45.288;12.038;2023-12-14T10:41:09;17.0;;;12.4;;
61739;SDS011;47645;45.288;12.038;2023-12-14T10:51:10;19.7;;;12.6;;
61739;SDS011;47645;45.288;12.038;2023-12-14T11:01:13;20.9;;;14.2;;
61739;SDS011;47645;45.288;12.038;2023-12-14T11:11:13;20.0;;;13.5;;
61739;SDS011;47645;45.288;12.038;2023-12-14T11:21:11;20.7;;;13.2;;
61739;SDS011;47645;45.288;12.038;2023-12-14T11:31:12;17.5;;;11.9;;
61739;SDS011;47645;45.288;12.038;2023-12-14T11:41:13;23.2;;;13.9;;
61739;SDS011;47645;45.288;12.038;2023-12-14T11:51:13;17.9;;;11.0;;
61739;SDS011;47645;45.288;12.038;2023-12-14T12:01:14;22.4;;;13.7;;
61739;SDS011;47645;45.288;12.038;2023-12-14T12:11:15;19.0;;;12.8;;
61739;SDS011;47645;45.288;12.038;2023-12-14T12:21:15;22.5;;;13.3;;
61739;SDS011;47645;45.288;12.038;2023-12-14T12:31:15;19.4;;;12.6;;
61739;SDS011;47645;45.288;12.038;2023-12-14T12:41:17;17.2;;;11.2;;
61739;SDS011;47645;45.288;12.038;2023-12-14T12:51:17;20.3;;;12.5;;
61739;SDS011;47645;45.288;12.038;2023-12-14T13:01:17;27.0;;;14.0;;
61739;SDS011;47645;45.288;12.038;2023-12-14T13:11:18;21.8;;;12.8;;
61739;SDS011;47645;45.288;12.038;2023-12-14T13:21:20;20.7;;;12.5;;
61739;SDS011;47645;45.288;12.038;2023-12-14T13:31:19;23.4;;;13.2;;
61739;SDS011;47645;45.288;12.038;2023-12-14T13:41:19;23.3;;;13.2;;
61739;SDS011;47645;45.288;12.038;2023-12-14T13:51:20;22.1;;;11.7;;
61739;SDS011;47645;45.288;12.038;2023-12-14T14:01:21;18.5;;;11.3;;
61739;SDS011;47645;45.288;12.038;2023-12-14T14:11:21;17.6;;;11.4;;
61739;SDS011;47645;45.288;12.038;2023-12-14T14:21:21;18.4;;;10.7;;
61739;SDS011;47645;45.288;12.038;2023-12-14T14:31:22;18.8;;;11.9;;
61739;SDS011;47645;45.288;12.038;2023-12-14T14:41:23;22.7;;;12.4;;
61739;SDS011;47645;45.288;12.038;2023-12-14T14:51:25;20.0;;;11.9;;
61739;SDS011;47645;45.288;12.038;2023-12-14T15:01:24;20.7;;;12.7;;
61739;SDS011;47645;45.288;12.038;2023-12-14T15:11:24;27.0;;;16.6;;
61739;SDS011;47645;45.288;12.038;2023-12-14T15:21:25;20.8;;;11.2;;
61739;SDS011;47645;45.288;12.038;2023-12-14T15:31:26;20.7;;;12.5;;
61739;SDS011;47645;45.288;12.038;2023-12-14T15:41:26;17.7;;;11.2;;
61739;SDS011;47645;45.288;12.038;2023-12-14T15:51:27;19.3;;;11.5;;
61739;SDS011;47645;45.288;12.038;2023-12-14T16:01:27;19.1;;;11.5;;
61739;SDS011;47645;45.288;12.038;2023-12-14T16:11:28;18.1;;;11.6;;
61739;SDS011;47645;45.288;12.038;2023-12-14T16:21:29;18.8;;;12.1;;
61739;SDS011;47645;45.288;12.038;2023-12-14T16:31:29;15.4;;;9.3;;
61739;SDS011;47645;45.288;12.038;2023-12-14T16:41:29;18.6;;;11.0;;
61739;SDS011;47645;45.288;12.038;2023-12-14T16:51:30;19.4;;;12.0;;
61739;SDS011;47645;45.288;12.038;2023-12-14T17:01:31;17.2;;;10.7;;
61739;SDS011;47645;45.288;12.038;2023-12-14T17:11:31;16.9;;;10.6;;
61739;SDS011;47645;45.288;12.038;2023-12-14T17:21:31;18.1;;;11.7;;
61739;SDS011;47645;45.288;12.038;2023-12-14T17:31:32;15.9;;;10.8;;
61739;SDS011;47645;45.288;12.038;2023-12-14T17:41:32;15.9;;;10.5;;
61739;SDS011;47645;45.288;12.038;2023-12-14T17:51:33;13.8;;;9.2;;
61739;SDS011;47645;45.288;12.038;2023-12-14T18:01:34;12.9;;;8.7;;
61739;SDS011;47645;45.288;12.038;2023-12-14T18:11:34;14.0;;;9.6;;
61739;SDS011;47645;45.288;12.038;2023-12-14T18:21:35;14.3;;;9.6;;
61739;SDS011;47645;45.288;12.038;2023-12-14T18:31:36;14.0;;;8.8;;
61739;SDS011;47645;45.288;12.038;2023-12-14T18:41:36;18.5;;;11.6;;
61739;SDS011;47645;45.288;12.038;2023-12-14T18:51:36;17.0;;;10.5;;
61739;SDS011;47645;45.288;12.038;2023-12-14T19:01:38;11.9;;;7.6;;
61739;SDS011;47645;45.288;12.038;2023-12-14T19:11:37;12.8;;;7.8;;
61739;SDS011;47645;45.288;12.038;2023-12-14T19:21:38;13.5;;;9.2;;
61739;SDS011;47645;45.288;12.038;2023-12-14T19:31:38;18.6;;;10.5;;
61739;SDS011;47645;45.288;12.038;2023-12-14T19:41:39;15.7;;;10.3;;
61739;SDS011;47645;45.288;12.038;2023-12-14T19:51:39;16.6;;;10.9;;
61739;SDS011;47645;45.288;12.038;2023-12-14T20:01:41;31.7;;;19.6;;
61739;SDS011;47645;45.288;12.038;2023-12-14T20:11:40;27.3;;;17.0;;
61739;SDS011;47645;45.288;12.038;2023-12-14T20:21:41;28.1;;;14.0;;
61739;SDS011;47645;45.288;12.038;2023-12-14T20:31:43;22.7;;;13.3;;
61739;SDS011;47645;45.288;12.038;2023-12-14T20:41:42;21.0;;;12.3;;
61739;SDS011;47645;45.288;12.038;2023-12-14T20:51:43;21.7;;;13.1;;
61739;SDS011;47645;45.288;12.038;2023-12-14T21:01:43;32.8;;;16.1;;
61739;SDS011;47645;45.288;12.038;2023-12-14T21:11:44;25.8;;;14.1;;
61739;SDS011;47645;45.288;12.038;2023-12-14T21:21:44;30.7;;;16.3;;
61739;SDS011;47645;45.288;12.038;2023-12-14T21:31:45;30.4;;;15.4;;
61739;SDS011;47645;45.288;12.038;2023-12-14T21:41:45;21.0;;;11.9;;
61739;SDS011;47645;45.288;12.038;2023-12-14T21:51:47;20.8;;;12.4;;
61739;SDS011;47645;45.288;12.038;2023-12-14T22:01:47;23.2;;;13.1;;
61739;SDS011;47645;45.288;12.038;2023-12-14T22:11:47;24.9;;;12.8;;
61739;SDS011;47645;45.288;12.038;2023-12-14T22:21:49;24.4;;;11.9;;
61739;SDS011;47645;45.288;12.038;2023-12-14T22:31:49;25.5;;;14.9;;
61739;SDS011;47645;45.288;12.038;2023-12-14T22:41:49;53.0;;;22.9;;
61739;SDS011;47645;45.288;12.038;2023-12-14T22:51:49;33.3;;;16.7;;
61739;SDS011;47645;45.288;12.038;2023-12-14T23:01:50;25.4;;;12.3;;
61739;SDS011;47645;45.288;12.038;2023-12-14T23:11:50;24.7;;;12.2;;
61739;SDS011;47645;45.288;12.038;2023-12-14T23:21:51;17.8;;;10.6;;
61739;SDS011;47645;45.288;12.038;2023-12-14T23:31:51;18.7;;;10.1;;
61739;SDS011;47645;45.288;12.038;2023-12-14T23:41:52;15.6;;;10.2;;
61739;SDS011;47645;45.288;12.038;2023-12-14T23:51:52;18.9;;;10.4;;
